• Join FlightAware (Why Join?)
  • Login
  • US Flag 
02:07PM EDT


 

Airport Tracker/Info


-or-


 

Live Flight TrackerFlight Track Log ✈ UPS1331 ✈ 20-Mar-2014 ✈ KMIA - KSDF

Flight Track Log - Related Links

Times and Time Zones

All times are in EDT time to prevent confusion due to time zone crossing. See the UPS1331 flight status page for this flight to view local times or setup timezone preferences in your user account.

Time Position Orientation Groundspeed Altitude Reporting Facility
EDT Latitude Longitude Course Direction KTS MPH feet Rate Location/Type
10:59PM 25.8014 -80.3114 336° Northwest 152 175 1,300  Level Miami Center
11:00PM 25.8128 -80.3625 284° West 235 270 2,800 2,400 Climbing Miami Center
11:01PM 25.8403 -80.4350 293° West 268 308 6,000 3,120 Climbing Miami Center
11:05PM 26.3439 -80.4803 336° Northwest  Level FlightAware Approximate
11:06PM 26.3874 -80.5033 344° North 438 504 23,100  Level FlightAware ADS-B (KMCO)
11:07PM 26.4522 -80.5243 344° North 447 514 23,600 2,100 Climbing FlightAware ADS-B (KMCO)
11:08PM 26.5180 -80.5454 344° North 456 525 25,400 2,820 Climbing FlightAware ADS-B (KMCO)
11:08PM 26.5902 -80.5687 344° North 456 525 26,900 2,340 Climbing FlightAware ADS-B (KMCO)
11:09PM 26.6563 -80.5900 344° North 463 533 28,100 2,640 Climbing FlightAware ADS-B (KMCO)
11:09PM 26.7175 -80.6096 344° North 457 526 29,600 3,000 Climbing FlightAware ADS-B (KMCO)
11:10PM 26.7790 -80.6295 344° North 448 516 31,200 2,880 Climbing FlightAware ADS-B (KMCO)
11:10PM 26.8588 -80.6555 344° North 441 507 33,000 2,520 Climbing FlightAware ADS-B (KMCO)
11:11PM 26.9361 -80.6806 344° North 432 497 34,600 1,680 Climbing FlightAware ADS-B (KMCO)
11:12PM 26.9944 -80.6998 344° North 431 496 35,000 300 Climbing FlightAware ADS-B (KMCO)
11:12PM 27.0678 -80.7238 344° North 438 504 35,000  Level FlightAware ADS-B (KMCO)
11:13PM 27.1218 -80.7413 344° North 439 505 35,000  Level FlightAware ADS-B (KMCO)
11:13PM 27.1897 -80.7635 344° North 439 505 35,000  Level FlightAware ADS-B (KMCO)
11:14PM 27.2621 -80.7872 344° North 437 503 35,000  Level FlightAware ADS-B (KMCO)
11:14PM 27.3237 -80.8074 344° North 437 503 35,000  Level FlightAware ADS-B (KMCO)
11:15PM 27.4045 -80.8338 344° North 435 501 35,000  Level FlightAware ADS-B (KMCO)
11:16PM 27.4794 -80.8584 344° North 435 501 35,000  Level FlightAware ADS-B (KMCO)
11:16PM 27.5371 -80.8775 344° North 433 498 35,000  Level FlightAware ADS-B (KMCO)
11:17PM 27.6138 -80.9027 344° North 433 498 35,000  Level FlightAware ADS-B (KMCO)
11:17PM 27.6752 -80.9230 344° North 432 497 35,000  Level FlightAware ADS-B (KMCO)
11:18PM 27.7493 -80.9474 344° North 431 496 35,000  Level FlightAware ADS-B (KMCO)
11:19PM 27.8099 -80.9675 344° North 431 496 35,000  Level FlightAware ADS-B (KMCO)
11:19PM 27.8839 -80.9919 344° North 431 496 35,000  Level FlightAware ADS-B (KMCO)
11:20PM 27.9989 -81.0301 344° North 432 497 35,000  Level FlightAware ADS-B (KSFB)
11:21PM 28.0773 -81.0562 344° North 433 498 35,000  Level FlightAware ADS-B (KMCO)
11:21PM 28.1333 -81.0748 344° North 433 498 35,000  Level FlightAware ADS-B (KMCO)
11:22PM 28.1931 -81.0947 344° North 432 497 35,000  Level FlightAware ADS-B (KMCO)
11:22PM 28.2118 -81.1010 344° North 432 497 35,000  Level FlightAware ADS-B (KSFB)
11:23PM 28.3147 -81.1354 344° North 431 496 35,000  Level FlightAware ADS-B (KSFB)
11:23PM 28.3697 -81.1536 344° North 430 495 35,000  Level FlightAware ADS-B (KSFB)
11:24PM 28.4306 -81.1741 344° North 429 494 35,000  Level FlightAware ADS-B (KSFB)
11:25PM 28.4954 -81.1959 344° North 428 493 35,000  Level FlightAware ADS-B (KMCO)
11:25PM 28.5636 -81.2186 343° North 428 493 35,000  Level FlightAware ADS-B (KSFB)
11:26PM 28.6178 -81.2368 343° North 428 493 35,000  Level FlightAware ADS-B (KSFB)
11:26PM 28.6867 -81.2601 343° North 427 491 35,000  Level FlightAware ADS-B (KMCO)
11:27PM 28.7501 -81.2814 343° North 428 493 35,000  Level FlightAware ADS-B (KSFB)
11:27PM 28.8275 -81.3076 343° North 428 493 35,000  Level FlightAware ADS-B (KSFB)
11:28PM 28.9175 -81.3379 344° North 426 490 35,000  Level FlightAware ADS-B (KMCO)
11:29PM 28.9746 -81.3572 343° North 425 489 35,000  Level FlightAware ADS-B (KMCO)
11:29PM 29.0239 -81.3739 343° North 424 488 35,000  Level FlightAware ADS-B (KMCO)
11:30PM 29.0879 -81.3957 343° North 423 487 35,000  Level FlightAware ADS-B (KMCO)
11:30PM 29.1113 -81.4037 343° North 423 487 35,000  Level FlightAware ADS-B (KSFB)
11:31PM 29.1823 -81.4277 343° North 423 487 35,000  Level FlightAware ADS-B (KMCO)
11:31PM 29.2759 -81.4596 343° North 422 486 35,000  Level FlightAware ADS-B (KMCO)
11:32PM 29.3330 -81.4790 344° North 421 484 35,000  Level FlightAware ADS-B (KMCO)
11:32PM 29.3908 -81.4986 343° North 422 486 35,000  Level FlightAware ADS-B (KMCO)
11:33PM 29.4467 -81.5178 343° North 420 483 35,000  Level FlightAware ADS-B (KMCO)
11:33PM 29.4996 -81.5359 343° North 419 482 35,000  Level FlightAware ADS-B (KMCO)
11:34PM 29.5518 -81.5538 344° North 415 478 35,000  Level FlightAware ADS-B (KMCO)
11:35PM 29.6144 -81.5752 343° North 414 476 35,000  Level FlightAware ADS-B (KMCO)
11:35PM 29.6964 -81.6064 343° North 417 480 35,000 -60 Level Jacksonville Center
11:36PM 29.8072 -81.6431 344° North 412 474 34,900  Descending Jacksonville Center
11:37PM 29.9142 -81.6825 342° North 412 474 35,000  Climbing Jacksonville Center
11:38PM 30.0231 -81.7172 345° North 406 467 35,000  Level Jacksonville Center
11:39PM 30.1342 -81.7542 344° North 401 461 35,000  Level Jacksonville Center
11:40PM 30.2431 -81.7914 344° North 401 461 35,000  Level Jacksonville Center
11:41PM 30.3519 -81.8286 344° North 401 461 35,000  Level Jacksonville Center
11:42PM 30.4628 -81.8658 344° North 401 461 35,000  Level Jacksonville Center
11:43PM 30.5886 -81.9153 341° North 417 480 35,000  Level Jacksonville Center
11:44PM 30.6994 -81.9553 343° North 423 487 35,000  Level Jacksonville Center
11:45PM 30.8125 -81.9953 343° North 423 487 35,000  Level Jacksonville Center
11:46PM 30.9256 -82.0328 344° North 423 487 35,000  Level Jacksonville Center
11:47PM 31.0386 -82.0756 342° North 423 487 35,000  Level Jacksonville Center
11:48PM 31.1517 -82.1158 343° North 423 487 35,000  Level Jacksonville Center
11:49PM 31.2625 -82.1561 343° North 423 487 35,000  Level Jacksonville Center
11:50PM 31.3794 -82.1942 344° North 423 487 35,000  Level Jacksonville Center
11:51PM 31.4906 -82.2372 342° North 423 487 35,000  Level Jacksonville Center
11:53PM 31.6883 -82.3011 345° North 438 504 35,000  Level Atlanta Center
11:54PM 31.8039 -82.3453 342° North 438 504 35,000  Level Atlanta Center
11:55PM 31.9172 -82.3872 343° North 438 504 35,000  Level Atlanta Center
11:56PM 32.0344 -82.4292 343° North 438 504 35,000  Level Atlanta Center
11:57PM 32.1519 -82.4714 343° North 438 504 35,000  Level Atlanta Center
11:58PM 32.2464 -82.5064 343° North 438 504 35,000  Level Atlanta Center
11:59PM 32.3742 -82.5533 343° North 438 504 35,000  Level Atlanta Center
12:00AM 32.4917 -82.5981 342° North 444 511 35,000  Level Atlanta Center
12:01AM 32.6133 -82.6406 344° North 444 511 35,000  Level Atlanta Center
12:02AM 32.7328 -82.6831 343° North 444 511 35,000  Level Atlanta Center
12:03AM 32.8522 -82.7283 342° North 444 511 35,000  Level Atlanta Center
12:04AM 32.9717 -82.7736 342° North 444 511 35,000  Level Atlanta Center
12:05AM 33.0911 -82.8189 342° North 444 511 35,000  Level Atlanta Center
12:06AM 33.2103 -82.8619 343° North 444 511 35,000  Level Atlanta Center
12:07AM 33.3278 -82.9050 343° North 444 511 35,000  Level Atlanta Center
12:08AM 33.4431 -82.9508 342° North 439 505 35,000  Level Atlanta Center
12:09AM 33.5581 -82.9919 343° North 441 507 35,000  Level Atlanta Center
12:14AM 34.2097 -83.2346 342° North 426 490 35,000  Level FlightAware ADS-B (KDZJ)
12:15AM 34.2929 -83.2663 342° North 425 489 35,000  Level FlightAware ADS-B (KDZJ)
12:15AM 34.3717 -83.2965 342° North 425 489 35,000  Level FlightAware ADS-B (KDZJ)
12:16AM 34.4475 -83.3255 343° North 425 489 35,000  Level FlightAware ADS-B (KDZJ)
12:17AM 34.5210 -83.3536 342° North 424 488 35,000  Level FlightAware ADS-B (KDZJ)
12:17AM 34.5917 -83.3808 342° North 423 487 35,000  Level FlightAware ADS-B (KDZJ)
12:18AM 34.6717 -83.4116 342° North 424 488 35,000  Level FlightAware ADS-B (KDZJ)
12:19AM 34.7394 -83.4378 342° North 424 488 35,000  Level FlightAware ADS-B (KDZJ)
12:20AM 34.8497 -83.4803 342° North 422 486 35,000  Level FlightAware ADS-B (KDZJ)
12:20AM 34.9251 -83.5097 342° North 419 482 35,000  Level FlightAware ADS-B (KDZJ)
12:21AM 35.0031 -83.5400 342° North 420 483 35,000  Level FlightAware ADS-B (KDZJ)
12:22AM 35.0760 -83.5683 342° North 421 484 35,000  Level FlightAware ADS-B (KDZJ)
12:22AM 35.1535 -83.5984 342° North 421 484 35,000  Level FlightAware ADS-B (KDZJ)
12:23AM 35.2238 -83.6260 342° North 420 483 35,000  Level FlightAware ADS-B (KDZJ)
12:24AM 35.3037 -83.6572 342° North 419 482 35,000  Level FlightAware ADS-B (KDZJ)
12:24AM 35.3731 -83.6842 342° North 419 482 35,000  Level FlightAware ADS-B (KDZJ)
12:25AM 35.4873 -83.7293 342° North 408 470 35,000  Level FlightAware ADS-B (KDZJ)
12:26AM 35.4842 -83.7328 342° North 419 482 35,000  Level Atlanta Center
12:27AM 35.5950 -83.7731 344° North 419 482 35,000  Level Atlanta Center
12:28AM 35.7033 -83.8164 342° North 419 482 35,000  Level Atlanta Center
12:29AM 35.8142 -83.8594 343° North 419 482 35,000  Level Atlanta Center
12:30AM 35.9206 -83.9053 341° North 414 476 35,000  Level Atlanta Center
12:31AM 36.0208 -83.9669 334° Northwest 404 465 35,000 -420 Level Atlanta Center
12:33AM 36.2175 -84.0814 335° Northwest 398 458 33,800 -780 Descending Indianapolis Center
12:34AM 36.3164 -84.1406 334° Northwest 398 458 32,800 -600 Descending Indianapolis Center
12:40AM 36.8598 -84.4672 334° Northwest 402 463 29,900 -840 Descending FlightAware ADS-B (KBRY)
12:41AM 36.9846 -84.5428 334° Northwest 390 449 27,500 -3,000 Descending FlightAware ADS-B (KBRY)
12:42AM 37.0881 -84.6057 334° Northwest 394 453 23,700 -3,300 Descending FlightAware ADS-B (KBRY)
12:43AM 37.1846 -84.6646 334° Northwest 380 437 20,900 -2,700 Descending FlightAware ADS-B (KBRY)
12:44AM 37.2703 -84.7169 334° Northwest 365 420 18,400 -2,580 Descending FlightAware ADS-B (KBRY)
12:45AM 37.3483 -84.7647 334° Northwest 354 407 16,100 -1,680 Descending FlightAware ADS-B (KBRY)
12:50AM 37.7241 -85.0490 312° West 246 283 8,300 -1,620 Descending FlightAware ADS-B (KBRY)
12:51AM 37.7583 -85.1081 296° West 250 288 6,800 -1,440 Descending FlightAware ADS-B (KBRY)
12:52AM 37.7889 -85.1852 297° West 247 284 5,500 -1,320 Descending FlightAware ADS-B (KBRY)
12:52AM 37.8169 -85.2568 296° West 249 287 4,400 -900 Descending FlightAware ADS-B (KBRY)
12:55AM 37.8863 -85.4344 296° West 247 284 2,900 -660 Descending FlightAware ADS-B (KBRY)
12:56AM 37.9182 -85.5086 307° West 247 284 2,400 -300 Descending FlightAware ADS-B (KBRY)
12:57AM 37.9630 -85.5770 310° West 241 277 2,400  Level FlightAware ADS-B (KBRY)
12:58AM 38.0005 -85.6335 310° West 190 219 2,400  Level FlightAware ADS-B (KBRY)
12:59AM 38.0371 -85.6798 341° North 182 209 2,400 -120 Level FlightAware ADS-B (KBRY)
01:00AM 38.0833 -85.7000 208° Southwest 160 184 2,200 -300 Descending Louisville TRACON
01:00AM 38.0845 -85.6963 345° North 158 182 2,100 -900 Descending FlightAware ADS-B (KBRY)
01:01AM 38.1214 -85.7088 345° North 148 170 1,300 -960 Descending FlightAware ADS-B (KBRY)
01:01AM 38.1303 -85.7119 345° North 150 173 900 -1,500 Descending FlightAware ADS-B (KBRY)
01:02AM 38.1741 -85.7365 211° Southwest  Level Estimated
01:05AM 38.1667 -85.7333 208° Southwest  Level FlightAware Approximate
01:09AM 38.1741 -85.7365 208° Southwest  Level Estimated
01:10AM 38.1741 -85.7365 208° Southwest  Level Estimated